sensor_id;sensor_type;location;lat;lon;timestamp;temperature;humidity
12060;DHT22;6091;51.432;6.880;2023-03-01T00:01:31;21.50;30.70
12060;DHT22;6091;51.432;6.880;2023-03-01T00:03:59;21.40;30.70
12060;DHT22;6091;51.432;6.880;2023-03-01T00:06:27;21.40;30.70
12060;DHT22;6091;51.432;6.880;2023-03-01T00:08:55;21.40;30.70
12060;DHT22;6091;51.432;6.880;2023-03-01T00:11:28;21.40;30.70
12060;DHT22;6091;51.432;6.880;2023-03-01T00:13:59;21.40;30.90
12060;DHT22;6091;51.432;6.880;2023-03-01T00:16:34;21.40;30.80
12060;DHT22;6091;51.432;6.880;2023-03-01T00:19:06;21.30;30.70
12060;DHT22;6091;51.432;6.880;2023-03-01T00:21:34;21.30;30.70
12060;DHT22;6091;51.432;6.880;2023-03-01T00:24:03;21.30;30.80
12060;DHT22;6091;51.432;6.880;2023-03-01T00:26:30;21.30;30.80
12060;DHT22;6091;51.432;6.880;2023-03-01T00:28:58;21.30;30.80
12060;DHT22;6091;51.432;6.880;2023-03-01T00:31:31;21.30;30.80
12060;DHT22;6091;51.432;6.880;2023-03-01T00:34:01;21.30;30.90
12060;DHT22;6091;51.432;6.880;2023-03-01T00:36:33;21.30;30.90
12060;DHT22;6091;51.432;6.880;2023-03-01T00:39:04;21.20;30.80
12060;DHT22;6091;51.432;6.880;2023-03-01T00:41:32;21.20;30.80
12060;DHT22;6091;51.432;6.880;2023-03-01T00:44:01;21.20;30.80
12060;DHT22;6091;51.432;6.880;2023-03-01T00:46:28;21.20;30.90
12060;DHT22;6091;51.432;6.880;2023-03-01T00:48:57;21.20;30.90
12060;DHT22;6091;51.432;6.880;2023-03-01T00:51:26;21.20;30.90
12060;DHT22;6091;51.432;6.880;2023-03-01T00:53:56;21.20;31.00
12060;DHT22;6091;51.432;6.880;2023-03-01T00:56:27;21.20;31.00
12060;DHT22;6091;51.432;6.880;2023-03-01T00:58:55;21.20;31.00
12060;DHT22;6091;51.432;6.880;2023-03-01T01:01:25;21.10;30.90
12060;DHT22;6091;51.432;6.880;2023-03-01T01:06:37;21.10;30.90
12060;DHT22;6091;51.432;6.880;2023-03-01T01:09:11;21.10;31.10
12060;DHT22;6091;51.432;6.880;2023-03-01T01:11:49;21.10;31.00
12060;DHT22;6091;51.432;6.880;2023-03-01T01:14:18;21.10;31.10
12060;DHT22;6091;51.432;6.880;2023-03-01T01:16:46;21.10;31.00
12060;DHT22;6091;51.432;6.880;2023-03-01T01:19:14;21.00;31.00
12060;DHT22;6091;51.432;6.880;2023-03-01T01:21:41;21.00;31.00
12060;DHT22;6091;51.432;6.880;2023-03-01T01:24:10;21.00;31.00
12060;DHT22;6091;51.432;6.880;2023-03-01T01:26:37;21.00;31.00
12060;DHT22;6091;51.432;6.880;2023-03-01T01:29:05;21.00;31.10
12060;DHT22;6091;51.432;6.880;2023-03-01T01:31:35;21.00;31.10
12060;DHT22;6091;51.432;6.880;2023-03-01T01:34:05;21.00;31.20
12060;DHT22;6091;51.432;6.880;2023-03-01T01:36:34;20.90;31.00
12060;DHT22;6091;51.432;6.880;2023-03-01T01:39:01;20.90;31.10
12060;DHT22;6091;51.432;6.880;2023-03-01T01:41:28;20.90;31.10
12060;DHT22;6091;51.432;6.880;2023-03-01T01:47:03;20.90;31.30
12060;DHT22;6091;51.432;6.880;2023-03-01T01:49:51;20.90;31.40
12060;DHT22;6091;51.432;6.880;2023-03-01T01:52:31;20.90;31.30
12060;DHT22;6091;51.432;6.880;2023-03-01T01:55:18;20.90;31.30
12060;DHT22;6091;51.432;6.880;2023-03-01T01:57:53;20.90;31.30
12060;DHT22;6091;51.432;6.880;2023-03-01T02:00:27;20.60;31.00
12060;DHT22;6091;51.432;6.880;2023-03-01T02:03:02;20.80;31.20
12060;DHT22;6091;51.432;6.880;2023-03-01T02:08:04;20.80;31.30
12060;DHT22;6091;51.432;6.880;2023-03-01T02:10:33;20.80;31.20
12060;DHT22;6091;51.432;6.880;2023-03-01T02:13:02;20.80;31.30
12060;DHT22;6091;51.432;6.880;2023-03-01T02:15:33;20.80;31.30
12060;DHT22;6091;51.432;6.880;2023-03-01T02:18:03;20.80;31.40
12060;DHT22;6091;51.432;6.880;2023-03-01T02:20:40;20.80;31.30
12060;DHT22;6091;51.432;6.880;2023-03-01T02:23:18;20.80;31.50
12060;DHT22;6091;51.432;6.880;2023-03-01T02:26:00;20.70;31.30
12060;DHT22;6091;51.432;6.880;2023-03-01T02:28:36;20.70;31.40
12060;DHT22;6091;51.432;6.880;2023-03-01T02:31:09;20.70;31.30
12060;DHT22;6091;51.432;6.880;2023-03-01T02:33:56;20.70;31.40
12060;DHT22;6091;51.432;6.880;2023-03-01T02:36:28;20.70;31.30
12060;DHT22;6091;51.432;6.880;2023-03-01T02:38:59;20.60;31.30
12060;DHT22;6091;51.432;6.880;2023-03-01T02:41:31;20.70;31.40
12060;DHT22;6091;51.432;6.880;2023-03-01T02:44:02;20.60;31.90
12060;DHT22;6091;51.432;6.880;2023-03-01T02:46:30;20.60;31.30
12060;DHT22;6091;51.432;6.880;2023-03-01T02:48:59;20.60;31.40
12060;DHT22;6091;51.432;6.880;2023-03-01T02:51:52;20.60;31.40
12060;DHT22;6091;51.432;6.880;2023-03-01T02:54:36;20.60;31.60
12060;DHT22;6091;51.432;6.880;2023-03-01T02:57:08;20.60;31.50
12060;DHT22;6091;51.432;6.880;2023-03-01T02:59:37;20.60;31.40
12060;DHT22;6091;51.432;6.880;2023-03-01T03:02:19;20.60;31.40
12060;DHT22;6091;51.432;6.880;2023-03-01T03:05:11;20.60;31.40
12060;DHT22;6091;51.432;6.880;2023-03-01T03:07:43;20.50;31.50
12060;DHT22;6091;51.432;6.880;2023-03-01T03:10:21;20.50;31.40
12060;DHT22;6091;51.432;6.880;2023-03-01T03:12:52;20.50;31.60
12060;DHT22;6091;51.432;6.880;2023-03-01T03:15:21;20.50;31.40
12060;DHT22;6091;51.432;6.880;2023-03-01T03:17:53;20.50;31.40
12060;DHT22;6091;51.432;6.880;2023-03-01T03:20:22;20.50;31.50
12060;DHT22;6091;51.432;6.880;2023-03-01T03:22:56;20.50;31.50
12060;DHT22;6091;51.432;6.880;2023-03-01T03:25:28;20.50;31.60
12060;DHT22;6091;51.432;6.880;2023-03-01T03:27:57;20.50;31.50
12060;DHT22;6091;51.432;6.880;2023-03-01T03:30:28;20.40;31.40
12060;DHT22;6091;51.432;6.880;2023-03-01T03:32:58;20.40;32.10
12060;DHT22;6091;51.432;6.880;2023-03-01T03:35:29;20.40;31.50
12060;DHT22;6091;51.432;6.880;2023-03-01T03:38:10;20.40;31.50
12060;DHT22;6091;51.432;6.880;2023-03-01T03:40:46;20.40;31.50
12060;DHT22;6091;51.432;6.880;2023-03-01T03:43:20;20.40;31.60
12060;DHT22;6091;51.432;6.880;2023-03-01T03:45:51;20.40;31.90
12060;DHT22;6091;51.432;6.880;2023-03-01T03:48:19;20.40;31.60
12060;DHT22;6091;51.432;6.880;2023-03-01T03:50:49;20.30;31.50
12060;DHT22;6091;51.432;6.880;2023-03-01T03:53:18;20.30;31.50
12060;DHT22;6091;51.432;6.880;2023-03-01T03:55:46;20.30;31.50
12060;DHT22;6091;51.432;6.880;2023-03-01T03:58:16;20.40;31.60
12060;DHT22;6091;51.432;6.880;2023-03-01T04:00:49;20.30;31.60
12060;DHT22;6091;51.432;6.880;2023-03-01T04:03:18;20.20;31.50
12060;DHT22;6091;51.432;6.880;2023-03-01T04:05:47;20.30;31.60
12060;DHT22;6091;51.432;6.880;2023-03-01T04:08:20;20.30;31.60
12060;DHT22;6091;51.432;6.880;2023-03-01T04:10:51;20.30;31.60
12060;DHT22;6091;51.432;6.880;2023-03-01T04:13:22;20.30;31.60
12060;DHT22;6091;51.432;6.880;2023-03-01T04:15:50;20.30;31.70
12060;DHT22;6091;51.432;6.880;2023-03-01T04:18:21;20.30;31.60
12060;DHT22;6091;51.432;6.880;2023-03-01T04:20:50;20.30;31.70
12060;DHT22;6091;51.432;6.880;2023-03-01T04:23:20;20.20;31.60
12060;DHT22;6091;51.432;6.880;2023-03-01T04:28:32;20.20;31.60
12060;DHT22;6091;51.432;6.880;2023-03-01T04:31:06;20.20;31.60
12060;DHT22;6091;51.432;6.880;2023-03-01T04:33:53;20.20;31.70
12060;DHT22;6091;51.432;6.880;2023-03-01T04:36:24;20.20;31.70
12060;DHT22;6091;51.432;6.880;2023-03-01T04:38:53;20.20;31.70
12060;DHT22;6091;51.432;6.880;2023-03-01T04:41:23;20.20;31.70
12060;DHT22;6091;51.432;6.880;2023-03-01T04:43:51;20.20;31.70
12060;DHT22;6091;51.432;6.880;2023-03-01T04:46:19;20.20;32.40
12060;DHT22;6091;51.432;6.880;2023-03-01T04:48:47;20.10;31.70
12060;DHT22;6091;51.432;6.880;2023-03-01T04:51:14;20.20;31.80
12060;DHT22;6091;51.432;6.880;2023-03-01T04:53:43;20.20;31.80
12060;DHT22;6091;51.432;6.880;2023-03-01T04:56:11;20.10;31.70
12060;DHT22;6091;51.432;6.880;2023-03-01T04:58:40;20.10;31.70
12060;DHT22;6091;51.432;6.880;2023-03-01T05:01:12;20.10;31.80
12060;DHT22;6091;51.432;6.880;2023-03-01T05:03:46;20.10;31.80
12060;DHT22;6091;51.432;6.880;2023-03-01T05:06:15;20.10;31.80
12060;DHT22;6091;51.432;6.880;2023-03-01T05:08:44;20.10;31.80
12060;DHT22;6091;51.432;6.880;2023-03-01T05:11:12;20.10;31.80
12060;DHT22;6091;51.432;6.880;2023-03-01T05:13:39;20.10;31.80
12060;DHT22;6091;51.432;6.880;2023-03-01T05:16:07;20.10;31.90
12060;DHT22;6091;51.432;6.880;2023-03-01T05:18:38;20.00;31.80
12060;DHT22;6091;51.432;6.880;2023-03-01T05:21:09;20.10;31.90
12060;DHT22;6091;51.432;6.880;2023-03-01T05:23:42;20.00;32.40
12060;DHT22;6091;51.432;6.880;2023-03-01T05:26:10;20.00;31.80
12060;DHT22;6091;51.432;6.880;2023-03-01T05:28:54;20.00;31.80
12060;DHT22;6091;51.432;6.880;2023-03-01T05:31:25;20.00;31.80
12060;DHT22;6091;51.432;6.880;2023-03-01T05:33:53;20.00;31.80
12060;DHT22;6091;51.432;6.880;2023-03-01T05:36:20;20.00;31.80
12060;DHT22;6091;51.432;6.880;2023-03-01T05:38:47;20.00;31.80
12060;DHT22;6091;51.432;6.880;2023-03-01T05:41:15;20.00;31.80
12060;DHT22;6091;51.432;6.880;2023-03-01T05:43:43;20.00;31.90
12060;DHT22;6091;51.432;6.880;2023-03-01T05:46:11;20.00;31.90
12060;DHT22;6091;51.432;6.880;2023-03-01T05:48:41;20.00;31.90
12060;DHT22;6091;51.432;6.880;2023-03-01T05:51:08;20.00;31.90
12060;DHT22;6091;51.432;6.880;2023-03-01T05:53:35;20.00;31.90
12060;DHT22;6091;51.432;6.880;2023-03-01T05:56:04;20.00;32.10
12060;DHT22;6091;51.432;6.880;2023-03-01T05:58:31;19.90;31.90
12060;DHT22;6091;51.432;6.880;2023-03-01T06:00:58;19.90;31.90
12060;DHT22;6091;51.432;6.880;2023-03-01T06:03:25;19.90;31.90
12060;DHT22;6091;51.432;6.880;2023-03-01T06:05:57;19.90;31.90
12060;DHT22;6091;51.432;6.880;2023-03-01T06:08:24;19.90;32.00
12060;DHT22;6091;51.432;6.880;2023-03-01T06:10:53;19.90;32.00
12060;DHT22;6091;51.432;6.880;2023-03-01T06:13:22;19.90;31.90
12060;DHT22;6091;51.432;6.880;2023-03-01T06:15:50;19.90;32.00
12060;DHT22;6091;51.432;6.880;2023-03-01T06:18:18;19.90;32.00
12060;DHT22;6091;51.432;6.880;2023-03-01T06:20:53;19.90;32.00
12060;DHT22;6091;51.432;6.880;2023-03-01T06:23:21;19.90;32.10
12060;DHT22;6091;51.432;6.880;2023-03-01T06:25:49;19.80;31.90
12060;DHT22;6091;51.432;6.880;2023-03-01T06:28:16;19.80;31.90
12060;DHT22;6091;51.432;6.880;2023-03-01T06:30:43;19.80;32.00
12060;DHT22;6091;51.432;6.880;2023-03-01T06:33:10;19.80;32.00
12060;DHT22;6091;51.432;6.880;2023-03-01T06:35:37;19.80;32.00
12060;DHT22;6091;51.432;6.880;2023-03-01T06:38:05;19.80;32.10
12060;DHT22;6091;51.432;6.880;2023-03-01T06:40:32;19.80;32.20
12060;DHT22;6091;51.432;6.880;2023-03-01T06:43:01;19.80;32.50
12060;DHT22;6091;51.432;6.880;2023-03-01T06:45:29;19.90;32.50
12060;DHT22;6091;51.432;6.880;2023-03-01T06:48:05;19.90;32.60
12060;DHT22;6091;51.432;6.880;2023-03-01T06:50:35;20.00;33.00
12060;DHT22;6091;51.432;6.880;2023-03-01T06:53:03;20.20;33.00
12060;DHT22;6091;51.432;6.880;2023-03-01T06:55:33;20.30;33.10
12060;DHT22;6091;51.432;6.880;2023-03-01T06:58:01;20.40;33.10
12060;DHT22;6091;51.432;6.880;2023-03-01T07:00:30;20.60;33.30
12060;DHT22;6091;51.432;6.880;2023-03-01T07:03:01;20.70;33.90
12060;DHT22;6091;51.432;6.880;2023-03-01T07:05:29;20.90;33.40
12060;DHT22;6091;51.432;6.880;2023-03-01T07:07:57;21.00;33.40
12060;DHT22;6091;51.432;6.880;2023-03-01T07:10:24;21.20;33.50
12060;DHT22;6091;51.432;6.880;2023-03-01T07:12:55;21.30;33.40
12060;DHT22;6091;51.432;6.880;2023-03-01T07:15:22;21.50;33.40
12060;DHT22;6091;51.432;6.880;2023-03-01T07:17:50;21.70;33.50
12060;DHT22;6091;51.432;6.880;2023-03-01T07:20:18;21.70;33.30
12060;DHT22;6091;51.432;6.880;2023-03-01T07:22:49;21.90;33.40
12060;DHT22;6091;51.432;6.880;2023-03-01T07:25:16;22.00;33.40
12060;DHT22;6091;51.432;6.880;2023-03-01T07:27:43;22.20;33.40
12060;DHT22;6091;51.432;6.880;2023-03-01T07:30:10;22.30;33.30
12060;DHT22;6091;51.432;6.880;2023-03-01T07:32:37;22.40;33.50
12060;DHT22;6091;51.432;6.880;2023-03-01T07:35:05;22.50;33.40
12060;DHT22;6091;51.432;6.880;2023-03-01T07:37:32;22.60;33.30
12060;DHT22;6091;51.432;6.880;2023-03-01T07:39:59;22.80;33.30
12060;DHT22;6091;51.432;6.880;2023-03-01T07:42:26;22.80;33.20
12060;DHT22;6091;51.432;6.880;2023-03-01T07:44:53;22.90;33.20
12060;DHT22;6091;51.432;6.880;2023-03-01T07:47:20;23.00;33.10
12060;DHT22;6091;51.432;6.880;2023-03-01T07:49:47;23.10;32.90
12060;DHT22;6091;51.432;6.880;2023-03-01T07:52:14;23.20;33.10
12060;DHT22;6091;51.432;6.880;2023-03-01T07:54:43;23.20;33.10
12060;DHT22;6091;51.432;6.880;2023-03-01T07:57:13;23.40;33.10
12060;DHT22;6091;51.432;6.880;2023-03-01T07:59:40;23.40;33.00
12060;DHT22;6091;51.432;6.880;2023-03-01T08:02:08;23.60;33.10
12060;DHT22;6091;51.432;6.880;2023-03-01T08:04:36;23.60;33.00
12060;DHT22;6091;51.432;6.880;2023-03-01T08:07:05;23.70;32.90
12060;DHT22;6091;51.432;6.880;2023-03-01T08:09:35;23.70;32.60
12060;DHT22;6091;51.432;6.880;2023-03-01T08:12:04;23.70;32.70
12060;DHT22;6091;51.432;6.880;2023-03-01T08:14:32;23.80;32.80
12060;DHT22;6091;51.432;6.880;2023-03-01T08:16:59;23.90;32.30
12060;DHT22;6091;51.432;6.880;2023-03-01T08:19:26;24.00;32.70
12060;DHT22;6091;51.432;6.880;2023-03-01T08:21:54;24.00;32.70
12060;DHT22;6091;51.432;6.880;2023-03-01T08:24:25;24.10;32.60
12060;DHT22;6091;51.432;6.880;2023-03-01T08:26:52;24.10;32.50
12060;DHT22;6091;51.432;6.880;2023-03-01T08:29:20;24.20;32.50
12060;DHT22;6091;51.432;6.880;2023-03-01T08:31:48;24.20;32.40
12060;DHT22;6091;51.432;6.880;2023-03-01T08:34:18;24.30;32.50
12060;DHT22;6091;51.432;6.880;2023-03-01T08:36:46;24.30;32.40
12060;DHT22;6091;51.432;6.880;2023-03-01T08:39:15;24.40;32.40
12060;DHT22;6091;51.432;6.880;2023-03-01T08:41:46;24.40;32.10
12060;DHT22;6091;51.432;6.880;2023-03-01T08:44:15;24.30;32.30
12060;DHT22;6091;51.432;6.880;2023-03-01T08:46:44;24.40;32.40
12060;DHT22;6091;51.432;6.880;2023-03-01T08:49:14;24.40;32.30
12060;DHT22;6091;51.432;6.880;2023-03-01T08:51:45;24.40;32.00
12060;DHT22;6091;51.432;6.880;2023-03-01T08:54:18;24.40;32.30
12060;DHT22;6091;51.432;6.880;2023-03-01T08:56:47;24.50;31.10
12060;DHT22;6091;51.432;6.880;2023-03-01T08:59:16;24.50;31.20
12060;DHT22;6091;51.432;6.880;2023-03-01T09:01:44;24.50;31.10
12060;DHT22;6091;51.432;6.880;2023-03-01T09:04:12;24.50;31.40
12060;DHT22;6091;51.432;6.880;2023-03-01T09:06:40;24.50;31.00
12060;DHT22;6091;51.432;6.880;2023-03-01T09:09:16;24.50;31.10
12060;DHT22;6091;51.432;6.880;2023-03-01T09:11:45;24.50;31.00
12060;DHT22;6091;51.432;6.880;2023-03-01T09:14:13;24.50;31.20
12060;DHT22;6091;51.432;6.880;2023-03-01T09:16:40;24.50;31.30
12060;DHT22;6091;51.432;6.880;2023-03-01T09:19:08;24.50;31.30
12060;DHT22;6091;51.432;6.880;2023-03-01T09:21:35;24.50;31.30
12060;DHT22;6091;51.432;6.880;2023-03-01T09:24:14;24.50;31.30
12060;DHT22;6091;51.432;6.880;2023-03-01T09:26:42;24.50;31.20
12060;DHT22;6091;51.432;6.880;2023-03-01T09:29:09;24.50;31.40
12060;DHT22;6091;51.432;6.880;2023-03-01T09:31:36;24.50;31.40
12060;DHT22;6091;51.432;6.880;2023-03-01T09:34:04;24.60;31.50
12060;DHT22;6091;51.432;6.880;2023-03-01T09:36:31;24.60;31.50
12060;DHT22;6091;51.432;6.880;2023-03-01T09:39:00;24.60;31.50
12060;DHT22;6091;51.432;6.880;2023-03-01T09:41:50;24.60;31.60
12060;DHT22;6091;51.432;6.880;2023-03-01T09:44:54;24.70;31.50
12060;DHT22;6091;51.432;6.880;2023-03-01T09:47:34;24.70;31.90
12060;DHT22;6091;51.432;6.880;2023-03-01T09:50:20;24.80;31.40
12060;DHT22;6091;51.432;6.880;2023-03-01T09:53:01;24.90;31.40
12060;DHT22;6091;51.432;6.880;2023-03-01T09:55:46;24.90;31.30
12060;DHT22;6091;51.432;6.880;2023-03-01T09:58:37;24.90;31.20
12060;DHT22;6091;51.432;6.880;2023-03-01T10:04:11;25.00;30.80
12060;DHT22;6091;51.432;6.880;2023-03-01T10:07:05;25.10;30.20
12060;DHT22;6091;51.432;6.880;2023-03-01T10:09:42;25.10;30.40
12060;DHT22;6091;51.432;6.880;2023-03-01T10:12:15;25.20;30.60
12060;DHT22;6091;51.432;6.880;2023-03-01T10:15:18;25.10;30.70
12060;DHT22;6091;51.432;6.880;2023-03-01T10:17:56;25.20;30.50
12060;DHT22;6091;51.432;6.880;2023-03-01T10:20:45;25.20;30.70
12060;DHT22;6091;51.432;6.880;2023-03-01T10:23:19;25.30;30.70
12060;DHT22;6091;51.432;6.880;2023-03-01T10:26:05;25.30;30.90
12060;DHT22;6091;51.432;6.880;2023-03-01T10:29:26;25.30;30.70
12060;DHT22;6091;51.432;6.880;2023-03-01T10:32:04;25.40;30.60
12060;DHT22;6091;51.432;6.880;2023-03-01T10:34:35;25.40;30.90
12060;DHT22;6091;51.432;6.880;2023-03-01T10:37:14;25.50;30.90
12060;DHT22;6091;51.432;6.880;2023-03-01T10:40:17;25.60;30.60
12060;DHT22;6091;51.432;6.880;2023-03-01T10:42:49;25.60;30.60
12060;DHT22;6091;51.432;6.880;2023-03-01T10:50:49;25.80;30.60
12060;DHT22;6091;51.432;6.880;2023-03-01T10:53:37;25.90;30.80
12060;DHT22;6091;51.432;6.880;2023-03-01T10:56:11;25.90;30.80
12060;DHT22;6091;51.432;6.880;2023-03-01T10:59:03;26.00;30.70
12060;DHT22;6091;51.432;6.880;2023-03-01T11:07:24;26.40;30.60
12060;DHT22;6091;51.432;6.880;2023-03-01T11:09:51;26.50;30.70
12060;DHT22;6091;51.432;6.880;2023-03-01T11:12:19;26.60;30.70
12060;DHT22;6091;51.432;6.880;2023-03-01T11:14:56;26.80;30.70
12060;DHT22;6091;51.432;6.880;2023-03-01T11:17:28;27.00;30.20
12060;DHT22;6091;51.432;6.880;2023-03-01T11:20:17;27.10;30.40
12060;DHT22;6091;51.432;6.880;2023-03-01T11:23:05;27.20;30.30
12060;DHT22;6091;51.432;6.880;2023-03-01T11:25:40;27.50;30.40
12060;DHT22;6091;51.432;6.880;2023-03-01T11:28:19;27.60;30.40
12060;DHT22;6091;51.432;6.880;2023-03-01T11:31:04;27.80;30.30
12060;DHT22;6091;51.432;6.880;2023-03-01T11:36:53;28.10;30.00
12060;DHT22;6091;51.432;6.880;2023-03-01T11:39:42;28.30;29.70
12060;DHT22;6091;51.432;6.880;2023-03-01T11:45:11;28.60;29.70
12060;DHT22;6091;51.432;6.880;2023-03-01T11:50:42;28.90;29.90
12060;DHT22;6091;51.432;6.880;2023-03-01T11:56:38;29.10;29.40
12060;DHT22;6091;51.432;6.880;2023-03-01T11:59:18;29.20;29.10
12060;DHT22;6091;51.432;6.880;2023-03-01T12:02:34;29.40;29.20
12060;DHT22;6091;51.432;6.880;2023-03-01T12:08:20;29.60;29.10
12060;DHT22;6091;51.432;6.880;2023-03-01T12:11:28;29.70;28.90
12060;DHT22;6091;51.432;6.880;2023-03-01T12:14:17;29.80;28.80
12060;DHT22;6091;51.432;6.880;2023-03-01T12:37:49;30.60;28.30
12060;DHT22;6091;51.432;6.880;2023-03-01T12:41:17;30.70;28.10
12060;DHT22;6091;51.432;6.880;2023-03-01T12:49:44;30.90;28.30
12060;DHT22;6091;51.432;6.880;2023-03-01T12:55:35;31.10;27.70
12060;DHT22;6091;51.432;6.880;2023-03-01T13:01:02;31.20;28.10
12060;DHT22;6091;51.432;6.880;2023-03-01T13:06:41;31.40;27.60
12060;DHT22;6091;51.432;6.880;2023-03-01T13:18:03;31.60;27.30
12060;DHT22;6091;51.432;6.880;2023-03-01T13:28:46;31.90;26.60
12060;DHT22;6091;51.432;6.880;2023-03-01T13:33:55;31.80;26.90
12060;DHT22;6091;51.432;6.880;2023-03-01T13:44:25;31.20;26.00
12060;DHT22;6091;51.432;6.880;2023-03-01T13:49:43;30.90;26.10
12060;DHT22;6091;51.432;6.880;2023-03-01T13:55:23;30.60;26.00
12060;DHT22;6091;51.432;6.880;2023-03-01T13:57:57;30.30;26.00
12060;DHT22;6091;51.432;6.880;2023-03-01T14:05:59;29.90;26.20
12060;DHT22;6091;51.432;6.880;2023-03-01T14:08:40;29.80;26.30
12060;DHT22;6091;51.432;6.880;2023-03-01T14:20:16;29.30;26.50
12060;DHT22;6091;51.432;6.880;2023-03-01T14:22:51;29.20;26.70
12060;DHT22;6091;51.432;6.880;2023-03-01T14:25:24;29.10;26.70
12060;DHT22;6091;51.432;6.880;2023-03-01T14:27:56;29.00;26.80
12060;DHT22;6091;51.432;6.880;2023-03-01T14:33:02;28.80;26.90
12060;DHT22;6091;51.432;6.880;2023-03-01T14:35:35;28.70;27.00
12060;DHT22;6091;51.432;6.880;2023-03-01T14:38:03;28.60;27.00
12060;DHT22;6091;51.432;6.880;2023-03-01T14:40:34;28.60;27.10
12060;DHT22;6091;51.432;6.880;2023-03-01T14:43:11;28.50;27.10
12060;DHT22;6091;51.432;6.880;2023-03-01T14:45:48;28.50;27.10
12060;DHT22;6091;51.432;6.880;2023-03-01T14:48:18;28.50;27.30
12060;DHT22;6091;51.432;6.880;2023-03-01T14:50:46;28.20;27.60
12060;DHT22;6091;51.432;6.880;2023-03-01T14:53:20;28.20;27.50
12060;DHT22;6091;51.432;6.880;2023-03-01T14:55:55;28.20;27.50
12060;DHT22;6091;51.432;6.880;2023-03-01T14:58:25;28.20;27.20
12060;DHT22;6091;51.432;6.880;2023-03-01T15:00:57;28.10;26.70
12060;DHT22;6091;51.432;6.880;2023-03-01T15:03:41;28.10;26.80
12060;DHT22;6091;51.432;6.880;2023-03-01T15:06:11;28.10;26.80
12060;DHT22;6091;51.432;6.880;2023-03-01T15:08:46;28.10;27.00
12060;DHT22;6091;51.432;6.880;2023-03-01T15:13:49;28.00;27.00
12060;DHT22;6091;51.432;6.880;2023-03-01T15:16:29;28.00;27.10
12060;DHT22;6091;51.432;6.880;2023-03-01T15:19:05;28.10;27.20
12060;DHT22;6091;51.432;6.880;2023-03-01T15:21:44;28.10;27.30
12060;DHT22;6091;51.432;6.880;2023-03-01T15:24:20;28.00;27.30
12060;DHT22;6091;51.432;6.880;2023-03-01T15:26:59;28.00;27.30
12060;DHT22;6091;51.432;6.880;2023-03-01T15:29:34;28.00;27.30
12060;DHT22;6091;51.432;6.880;2023-03-01T15:32:28;28.00;27.80
12060;DHT22;6091;51.432;6.880;2023-03-01T15:34:58;28.00;27.40
12060;DHT22;6091;51.432;6.880;2023-03-01T15:37:40;27.90;27.40
12060;DHT22;6091;51.432;6.880;2023-03-01T15:40:28;27.90;27.50
12060;DHT22;6091;51.432;6.880;2023-03-01T15:43:04;27.80;27.60
12060;DHT22;6091;51.432;6.880;2023-03-01T15:45:33;27.80;27.50
12060;DHT22;6091;51.432;6.880;2023-03-01T15:48:03;27.60;28.00
12060;DHT22;6091;51.432;6.880;2023-03-01T15:50:36;27.50;27.80
12060;DHT22;6091;51.432;6.880;2023-03-01T15:53:11;27.60;27.80
12060;DHT22;6091;51.432;6.880;2023-03-01T15:55:41;27.50;27.70
12060;DHT22;6091;51.432;6.880;2023-03-01T15:58:17;27.50;27.70
12060;DHT22;6091;51.432;6.880;2023-03-01T16:00:46;27.60;27.80
12060;DHT22;6091;51.432;6.880;2023-03-01T16:03:27;27.50;27.70
12060;DHT22;6091;51.432;6.880;2023-03-01T16:05:54;27.50;27.70
12060;DHT22;6091;51.432;6.880;2023-03-01T16:08:22;27.50;27.70
12060;DHT22;6091;51.432;6.880;2023-03-01T16:10:49;27.50;27.80
12060;DHT22;6091;51.432;6.880;2023-03-01T16:13:18;27.50;27.70
12060;DHT22;6091;51.432;6.880;2023-03-01T16:15:46;27.40;27.70
12060;DHT22;6091;51.432;6.880;2023-03-01T16:18:13;27.40;27.70
12060;DHT22;6091;51.432;6.880;2023-03-01T16:20:40;27.40;27.70
12060;DHT22;6091;51.432;6.880;2023-03-01T16:23:08;27.30;27.60
12060;DHT22;6091;51.432;6.880;2023-03-01T16:25:37;27.30;27.60
12060;DHT22;6091;51.432;6.880;2023-03-01T16:28:04;27.20;27.60
12060;DHT22;6091;51.432;6.880;2023-03-01T16:30:39;27.20;27.80
12060;DHT22;6091;51.432;6.880;2023-03-01T16:33:07;27.10;27.70
12060;DHT22;6091;51.432;6.880;2023-03-01T16:35:53;27.10;27.80
12060;DHT22;6091;51.432;6.880;2023-03-01T16:38:20;27.10;27.80
12060;DHT22;6091;51.432;6.880;2023-03-01T16:40:49;27.00;27.80
12060;DHT22;6091;51.432;6.880;2023-03-01T16:43:17;27.00;27.90
12060;DHT22;6091;51.432;6.880;2023-03-01T16:45:44;26.90;27.80
12060;DHT22;6091;51.432;6.880;2023-03-01T16:48:13;26.90;27.90
12060;DHT22;6091;51.432;6.880;2023-03-01T16:50:40;26.80;27.90
12060;DHT22;6091;51.432;6.880;2023-03-01T16:53:07;26.80;28.00
12060;DHT22;6091;51.432;6.880;2023-03-01T16:55:34;26.70;28.00
12060;DHT22;6091;51.432;6.880;2023-03-01T16:58:01;26.60;28.00
12060;DHT22;6091;51.432;6.880;2023-03-01T17:00:29;26.60;28.10
12060;DHT22;6091;51.432;6.880;2023-03-01T17:02:56;26.50;28.10
12060;DHT22;6091;51.432;6.880;2023-03-01T17:05:23;26.50;28.50
12060;DHT22;6091;51.432;6.880;2023-03-01T17:07:51;26.40;28.30
12060;DHT22;6091;51.432;6.880;2023-03-01T17:10:22;26.40;28.30
12060;DHT22;6091;51.432;6.880;2023-03-01T17:12:49;26.40;28.40
12060;DHT22;6091;51.432;6.880;2023-03-01T17:15:17;27.30;28.80
12060;DHT22;6091;51.432;6.880;2023-03-01T17:17:44;26.30;28.40
12060;DHT22;6091;51.432;6.880;2023-03-01T17:20:11;26.20;28.40
12060;DHT22;6091;51.432;6.880;2023-03-01T17:22:38;26.20;28.40
12060;DHT22;6091;51.432;6.880;2023-03-01T17:25:10;26.10;28.40
12060;DHT22;6091;51.432;6.880;2023-03-01T17:27:39;26.10;28.40
12060;DHT22;6091;51.432;6.880;2023-03-01T17:30:08;26.10;28.40
12060;DHT22;6091;51.432;6.880;2023-03-01T17:32:37;26.00;28.40
12060;DHT22;6091;51.432;6.880;2023-03-01T17:35:05;25.90;28.40
12060;DHT22;6091;51.432;6.880;2023-03-01T17:37:33;25.90;28.40
12060;DHT22;6091;51.432;6.880;2023-03-01T17:40:02;25.80;28.40
12060;DHT22;6091;51.432;6.880;2023-03-01T17:42:30;25.80;28.40
12060;DHT22;6091;51.432;6.880;2023-03-01T17:44:58;25.70;28.50
12060;DHT22;6091;51.432;6.880;2023-03-01T17:47:26;25.60;28.50
12060;DHT22;6091;51.432;6.880;2023-03-01T17:49:53;25.60;28.90
12060;DHT22;6091;51.432;6.880;2023-03-01T17:52:20;25.50;28.50
12060;DHT22;6091;51.432;6.880;2023-03-01T17:54:50;25.40;28.50
12060;DHT22;6091;51.432;6.880;2023-03-01T17:57:17;25.40;28.60
12060;DHT22;6091;51.432;6.880;2023-03-01T17:59:44;25.30;28.60
12060;DHT22;6091;51.432;6.880;2023-03-01T18:02:11;25.20;28.60
12060;DHT22;6091;51.432;6.880;2023-03-01T18:04:39;25.20;28.60
12060;DHT22;6091;51.432;6.880;2023-03-01T18:07:06;25.10;28.60
12060;DHT22;6091;51.432;6.880;2023-03-01T18:09:33;25.10;28.70
12060;DHT22;6091;51.432;6.880;2023-03-01T18:12:00;25.00;28.80
12060;DHT22;6091;51.432;6.880;2023-03-01T18:14:27;25.00;28.80
12060;DHT22;6091;51.432;6.880;2023-03-01T18:16:59;24.50;28.50
12060;DHT22;6091;51.432;6.880;2023-03-01T18:19:32;24.90;28.90
12060;DHT22;6091;51.432;6.880;2023-03-01T18:21:59;24.80;28.80
12060;DHT22;6091;51.432;6.880;2023-03-01T18:24:26;24.70;28.90
12060;DHT22;6091;51.432;6.880;2023-03-01T18:26:53;24.70;28.90